createdAt,value
2018-04-08T00:00:34.409Z,1000.55
2018-04-08T00:01:34.397Z,1000.58
2018-04-08T00:02:34.382Z,1000.58
2018-04-08T00:03:34.368Z,1000.62
2018-04-08T00:04:34.356Z,1000.6
2018-04-08T00:05:34.340Z,1000.61
2018-04-08T00:06:34.324Z,1000.6
2018-04-08T00:07:34.313Z,1000.57
2018-04-08T00:08:34.298Z,1000.57
2018-04-08T00:09:34.282Z,1000.53
2018-04-08T00:10:34.268Z,1000.54
2018-04-08T00:11:34.255Z,1000.52
2018-04-08T00:12:34.240Z,1000.51
2018-04-08T00:13:34.228Z,1000.52
2018-04-08T00:14:34.211Z,1000.49
2018-04-08T00:15:34.197Z,1000.52
2018-04-08T00:16:34.188Z,1000.49
2018-04-08T00:17:34.169Z,1000.5
2018-04-08T00:18:34.154Z,1000.47
2018-04-08T00:19:34.140Z,1000.47
2018-04-08T00:20:34.328Z,1000.48
2018-04-08T00:21:34.112Z,1000.47
2018-04-08T00:22:34.097Z,1000.46
2018-04-08T00:23:34.084Z,1000.45
2018-04-08T00:24:34.069Z,1000.49
2018-04-08T00:25:34.060Z,1000.44
2018-04-08T00:26:34.044Z,1000.45
2018-04-08T00:27:34.030Z,1000.4
2018-04-08T00:28:34.014Z,1000.42
2018-04-08T00:29:34.004Z,1000.38
2018-04-08T00:30:33.986Z,1000.39
2018-04-08T00:31:33.969Z,1000.37
2018-04-08T00:32:33.954Z,1000.36
2018-04-08T00:33:33.943Z,1000.41
2018-04-08T00:34:33.926Z,1000.39
2018-04-08T00:35:33.911Z,1000.39
2018-04-08T00:36:33.899Z,1000.38
2018-04-08T00:37:33.885Z,1000.35
2018-04-08T00:38:33.868Z,1000.41
2018-04-08T00:39:33.855Z,1000.38
2018-04-08T00:40:33.840Z,1000.37
2018-04-08T00:41:33.826Z,1000.39
2018-04-08T00:42:33.810Z,1000.37
2018-04-08T00:43:33.800Z,1000.36
2018-04-08T00:44:33.784Z,1000.34
2018-04-08T00:45:33.769Z,1000.35
2018-04-08T00:46:33.754Z,1000.32
2018-04-08T00:47:33.740Z,1000.34
2018-04-08T00:48:33.729Z,1000.32
2018-04-08T00:49:33.712Z,1000.25
2018-04-08T00:50:33.696Z,1000.27
2018-04-08T00:51:33.688Z,1000.25
2018-04-08T00:52:33.669Z,1000.25
2018-04-08T00:53:33.654Z,1000.21
2018-04-08T00:54:33.640Z,1000.2
2018-04-08T00:55:33.623Z,1000.24
2018-04-08T00:56:33.612Z,1000.18
2018-04-08T00:57:33.596Z,1000.19
2018-04-08T00:58:33.584Z,1000.19
2018-04-08T00:59:33.568Z,1000.2
2018-04-08T01:00:33.555Z,1000.16
2018-04-08T01:01:33.545Z,1000.16
2018-04-08T01:02:33.528Z,1000.23
2018-04-08T01:03:33.515Z,1000.2
2018-04-08T01:04:33.494Z,1000.2
2018-04-08T01:05:33.480Z,1000.24
2018-04-08T01:06:33.467Z,1000.21
2018-04-08T01:07:33.453Z,1000.21
2018-04-08T01:08:33.443Z,1000.15
2018-04-08T01:09:33.425Z,1000.18
2018-04-08T01:10:33.411Z,1000.18
2018-04-08T01:11:33.395Z,1000.16
2018-04-08T01:12:33.382Z,1000.2
2018-04-08T01:13:33.365Z,1000.18
2018-04-08T01:14:33.350Z,1000.19
2018-04-08T01:15:33.337Z,1000.2
2018-04-08T01:16:33.322Z,1000.16
2018-04-08T01:17:33.306Z,1000.18
2018-04-08T01:18:33.294Z,1000.19
2018-04-08T01:19:33.288Z,1000.2
2018-04-08T01:20:33.264Z,1000.17
2018-04-08T01:21:33.248Z,1000.15
2018-04-08T01:22:33.233Z,1000.14
2018-04-08T01:23:33.224Z,1000.15
2018-04-08T01:24:33.207Z,1000.17
2018-04-08T01:25:33.193Z,1000.18
2018-04-08T01:26:33.177Z,1000.17
2018-04-08T01:27:33.163Z,1000.2
2018-04-08T01:28:33.151Z,1000.17
2018-04-08T01:29:33.133Z,1000.17
2018-04-08T01:30:33.118Z,1000.19
2018-04-08T01:31:33.104Z,1000.14
2018-04-08T01:32:33.089Z,1000.17
2018-04-08T01:33:33.074Z,1000.17
2018-04-08T01:34:33.062Z,1000.15
2018-04-08T01:35:33.045Z,1000.1
2018-04-08T01:36:33.033Z,1000.12
2018-04-08T01:37:33.020Z,1000.07
2018-04-08T01:38:32.999Z,1000.07
2018-04-08T01:39:32.991Z,1000.04
2018-04-08T01:40:32.973Z,1000.1
2018-04-08T01:41:32.968Z,1000.06
2018-04-08T01:42:32.945Z,1000.06
2018-04-08T01:43:32.930Z,1000.08
2018-04-08T01:44:32.913Z,1000.05
2018-04-08T01:45:32.902Z,1000.04
2018-04-08T01:46:32.884Z,1000.04
2018-04-08T01:47:32.870Z,1000.02
2018-04-08T01:48:32.857Z,999.99
2018-04-08T01:49:32.839Z,999.99
2018-04-08T01:50:32.826Z,1000
2018-04-08T01:51:32.812Z,1000
2018-04-08T01:52:32.797Z,999.95
2018-04-08T01:53:32.780Z,999.98
2018-04-08T01:54:32.765Z,999.94
2018-04-08T01:55:32.749Z,999.98
2018-04-08T01:56:32.739Z,999.98
2018-04-08T01:57:32.720Z,999.99
2018-04-08T01:58:32.705Z,1000
2018-04-08T01:59:32.690Z,1000.02
2018-04-08T02:00:32.677Z,999.98
2018-04-08T02:01:32.662Z,999.99
2018-04-08T02:02:32.650Z,1000
2018-04-08T02:03:32.631Z,999.99
2018-04-08T02:04:32.619Z,1000.02
2018-04-08T02:05:32.603Z,999.97
2018-04-08T02:06:32.587Z,999.99
2018-04-08T02:07:32.573Z,999.95
2018-04-08T02:08:32.558Z,999.99
2018-04-08T02:09:32.540Z,1000
2018-04-08T02:10:32.526Z,999.99
2018-04-08T02:11:32.513Z,999.98
2018-04-08T02:12:32.497Z,999.98
2018-04-08T02:13:32.480Z,999.97
2018-04-08T02:14:32.466Z,999.91
2018-04-08T02:15:32.452Z,999.95
2018-04-08T02:16:32.442Z,999.9
2018-04-08T02:17:32.422Z,999.94
2018-04-08T02:18:32.408Z,999.93
2018-04-08T02:19:32.417Z,999.97
2018-04-08T02:20:32.585Z,999.95
2018-04-08T02:21:32.363Z,999.98
2018-04-08T02:22:32.346Z,999.99
2018-04-08T02:23:32.333Z,1000
2018-04-08T02:24:32.316Z,1000.02
2018-04-08T02:25:32.302Z,1000.02
2018-04-08T02:26:32.288Z,1000
2018-04-08T02:27:32.272Z,1000.01
2018-04-08T02:28:32.259Z,1000.02
2018-04-08T02:29:32.239Z,1000
2018-04-08T02:30:32.232Z,999.97
2018-04-08T02:31:32.213Z,1000
2018-04-08T02:32:32.197Z,999.95
2018-04-08T02:33:32.181Z,1000
2018-04-08T02:34:32.166Z,999.96
2018-04-08T02:35:32.151Z,999.94
2018-04-08T02:36:32.135Z,999.91
2018-04-08T02:37:32.124Z,999.93
2018-04-08T02:38:32.107Z,999.93
2018-04-08T02:39:32.089Z,999.93
2018-04-08T02:40:32.078Z,999.89
2018-04-08T02:41:32.058Z,999.91
2018-04-08T02:42:32.045Z,999.88
2018-04-08T02:43:32.029Z,999.9
2018-04-08T02:44:32.013Z,999.9
2018-04-08T02:45:31.999Z,999.91
2018-04-08T02:46:31.984Z,999.88
2018-04-08T02:47:31.968Z,999.89
2018-04-08T02:48:31.954Z,999.9
2018-04-08T02:49:31.943Z,999.91
2018-04-08T02:50:31.924Z,999.9
2018-04-08T02:51:31.910Z,999.9
2018-04-08T02:52:31.894Z,999.9
2018-04-08T02:53:31.885Z,999.88
2018-04-08T02:54:31.861Z,999.89
2018-04-08T02:55:31.856Z,999.88
2018-04-08T02:56:31.834Z,999.88
2018-04-08T02:57:31.818Z,999.89
2018-04-08T02:58:31.801Z,999.9
2018-04-08T02:59:31.810Z,999.88
2018-04-08T03:00:31.771Z,999.91
2018-04-08T03:01:31.763Z,999.88
2018-04-08T03:02:31.741Z,999.92
2018-04-08T03:03:31.726Z,999.93
2018-04-08T03:04:31.710Z,999.91
2018-04-08T03:05:31.695Z,999.95
2018-04-08T03:06:31.679Z,999.9
2018-04-08T03:07:31.670Z,999.95
2018-04-08T03:08:31.649Z,999.96
2018-04-08T03:09:31.633Z,999.96
2018-04-08T03:10:31.620Z,999.95
2018-04-08T03:11:31.602Z,999.95
2018-04-08T03:12:31.586Z,999.96
2018-04-08T03:13:31.574Z,999.95
2018-04-08T03:14:31.557Z,999.92
2018-04-08T03:15:31.543Z,999.92
2018-04-08T03:16:31.528Z,999.87
2018-04-08T03:17:31.511Z,999.85
2018-04-08T03:18:31.497Z,999.85
2018-04-08T03:19:31.481Z,999.87
2018-04-08T03:20:31.468Z,999.85
2018-04-08T03:21:31.455Z,999.82
2018-04-08T03:22:31.435Z,999.8
2018-04-08T03:23:31.425Z,999.79
2018-04-08T03:24:31.404Z,999.74
2018-04-08T03:25:31.396Z,999.77
2018-04-08T03:26:31.376Z,999.74
2018-04-08T03:27:31.359Z,999.77
2018-04-08T03:28:31.347Z,999.76
2018-04-08T03:29:31.329Z,999.74
2018-04-08T03:30:31.316Z,999.76
2018-04-08T03:31:31.307Z,999.75
2018-04-08T03:32:31.316Z,999.76
2018-04-08T03:33:31.269Z,999.72
2018-04-08T03:34:31.253Z,999.71
2018-04-08T03:35:31.239Z,999.72
2018-04-08T03:36:31.225Z,999.75
2018-04-08T03:37:31.212Z,999.71
2018-04-08T03:38:31.196Z,999.69
2018-04-08T03:39:31.179Z,999.7
2018-04-08T03:40:31.164Z,999.69
2018-04-08T03:41:31.152Z,999.64
2018-04-08T03:42:31.135Z,999.68
2018-04-08T03:43:31.118Z,999.66
2018-04-08T03:44:31.104Z,999.61
2018-04-08T03:45:31.091Z,999.63
2018-04-08T03:46:31.075Z,999.6
2018-04-08T03:47:31.060Z,999.57
2018-04-08T03:48:31.047Z,999.6
2018-04-08T03:49:31.031Z,999.56
2018-04-08T03:50:31.018Z,999.57
2018-04-08T03:51:31.000Z,999.59
2018-04-08T03:52:30.984Z,999.57
2018-04-08T03:53:30.969Z,999.56
2018-04-08T03:54:30.957Z,999.54
2018-04-08T03:55:30.942Z,999.54
2018-04-08T03:56:30.926Z,999.56
2018-04-08T03:57:30.911Z,999.57
2018-04-08T03:58:30.898Z,999.54
2018-04-08T03:59:30.884Z,999.57
2018-04-08T04:00:30.869Z,999.57
2018-04-08T04:01:30.851Z,999.59
2018-04-08T04:02:30.838Z,999.6
2018-04-08T04:03:30.820Z,999.59
2018-04-08T04:04:30.806Z,999.62
2018-04-08T04:05:30.791Z,999.56
2018-04-08T04:06:30.777Z,999.57
2018-04-08T04:07:30.762Z,999.56
2018-04-08T04:08:30.746Z,999.61
2018-04-08T04:09:30.732Z,999.58
2018-04-08T04:10:30.718Z,999.58
2018-04-08T04:11:30.706Z,999.6
2018-04-08T04:12:30.689Z,999.61
2018-04-08T04:13:30.675Z,999.56
2018-04-08T04:14:30.659Z,999.55
2018-04-08T04:15:30.644Z,999.56
2018-04-08T04:16:30.632Z,999.56
2018-04-08T04:17:30.618Z,999.54
2018-04-08T04:18:30.601Z,999.54
2018-04-08T04:19:30.586Z,999.56
2018-04-08T04:20:30.773Z,999.53
2018-04-08T04:21:30.563Z,999.56
2018-04-08T04:22:30.542Z,999.53
2018-04-08T04:23:30.531Z,999.54
2018-04-08T04:24:30.513Z,999.54
2018-04-08T04:25:30.499Z,999.48
2018-04-08T04:26:30.483Z,999.48
2018-04-08T04:27:30.477Z,999.55
2018-04-08T04:28:30.459Z,999.52
2018-04-08T04:29:30.440Z,999.49
2018-04-08T04:30:30.424Z,999.51
2018-04-08T04:31:30.410Z,999.53
2018-04-08T04:32:30.400Z,999.55
2018-04-08T04:33:30.381Z,999.51
2018-04-08T04:34:30.367Z,999.5
2018-04-08T04:35:30.353Z,999.5
2018-04-08T04:36:30.340Z,999.5
2018-04-08T04:37:30.327Z,999.48
2018-04-08T04:38:30.309Z,999.5
2018-04-08T04:39:30.297Z,999.5
2018-04-08T04:40:30.285Z,999.5
2018-04-08T04:41:30.264Z,999.49
2018-04-08T04:42:30.250Z,999.53
2018-04-08T04:43:30.249Z,999.51
2018-04-08T04:44:30.226Z,999.53
2018-04-08T04:45:30.207Z,999.52
2018-04-08T04:46:30.192Z,999.53
2018-04-08T04:47:30.177Z,999.54
2018-04-08T04:48:30.170Z,999.52
2018-04-08T04:49:30.149Z,999.56
2018-04-08T04:50:30.134Z,999.52
2018-04-08T04:51:30.122Z,999.5
2018-04-08T04:52:30.105Z,999.53
2018-04-08T04:53:30.097Z,999.52
2018-04-08T04:54:30.078Z,999.51
2018-04-08T04:55:30.064Z,999.51
2018-04-08T04:56:30.050Z,999.48
2018-04-08T04:57:30.033Z,999.48
2018-04-08T04:58:30.019Z,999.47
2018-04-08T04:59:30.003Z,999.45
2018-04-08T05:00:29.998Z,999.44
2018-04-08T05:01:29.977Z,999.44
2018-04-08T05:02:29.959Z,999.41
2018-04-08T05:03:29.946Z,999.45
2018-04-08T05:04:29.932Z,999.43
2018-04-08T05:05:29.916Z,999.42
2018-04-08T05:06:29.902Z,999.45
2018-04-08T05:07:29.888Z,999.47
2018-04-08T05:08:29.875Z,999.44
2018-04-08T05:09:29.859Z,999.45
2018-04-08T05:10:29.844Z,999.41
2018-04-08T05:11:29.835Z,999.41
2018-04-08T05:12:29.816Z,999.44
2018-04-08T05:13:29.811Z,999.42
2018-04-08T05:14:29.788Z,999.43
2018-04-08T05:15:29.774Z,999.39
2018-04-08T05:16:29.761Z,999.38
2018-04-08T05:17:29.747Z,999.43
2018-04-08T05:18:29.731Z,999.36
2018-04-08T05:19:29.718Z,999.37
2018-04-08T05:20:29.708Z,999.39
2018-04-08T05:21:29.689Z,999.37
2018-04-08T05:22:29.682Z,999.41
2018-04-08T05:23:29.661Z,999.39
2018-04-08T05:24:29.646Z,999.4
2018-04-08T05:25:29.632Z,999.42
2018-04-08T05:26:29.619Z,999.43
2018-04-08T05:27:29.603Z,999.43
2018-04-08T05:28:29.589Z,999.49
2018-04-08T05:29:29.575Z,999.43
2018-04-08T05:30:29.562Z,999.45
2018-04-08T05:31:29.550Z,999.41
2018-04-08T05:32:29.537Z,999.46
2018-04-08T05:33:29.520Z,999.47
2018-04-08T05:34:29.507Z,999.48
2018-04-08T05:35:29.495Z,999.47
2018-04-08T05:36:29.476Z,999.52
2018-04-08T05:37:29.467Z,999.48
2018-04-08T05:38:29.449Z,999.47
2018-04-08T05:39:29.441Z,999.48
2018-04-08T05:40:29.423Z,999.53
2018-04-08T05:41:29.407Z,999.53
2018-04-08T05:42:29.396Z,999.54
2018-04-08T05:43:29.379Z,999.54
2018-04-08T05:44:29.370Z,999.55
2018-04-08T05:45:29.352Z,999.52
2018-04-08T05:46:29.341Z,999.55
2018-04-08T05:47:29.325Z,999.55
2018-04-08T05:48:29.316Z,999.57
2018-04-08T05:49:29.296Z,999.53
2018-04-08T05:50:29.283Z,999.57
2018-04-08T05:51:29.271Z,999.59
2018-04-08T05:52:29.261Z,999.58
2018-04-08T05:53:29.242Z,999.55
2018-04-08T05:54:29.228Z,999.56
2018-04-08T05:55:29.218Z,999.57
2018-04-08T05:56:29.204Z,999.57
2018-04-08T05:57:29.189Z,999.54
2018-04-08T05:58:29.173Z,999.57
2018-04-08T05:59:29.161Z,999.59
2018-04-08T06:00:29.146Z,999.58
2018-04-08T06:01:29.132Z,999.59
2018-04-08T06:02:29.122Z,999.56
2018-04-08T06:03:29.108Z,999.58
2018-04-08T06:04:29.091Z,999.63
2018-04-08T06:05:29.078Z,999.61
2018-04-08T06:06:29.066Z,999.62
2018-04-08T06:07:29.052Z,999.6
2018-04-08T06:08:29.039Z,999.59
2018-04-08T06:09:29.025Z,999.6
2018-04-08T06:10:29.016Z,999.58
2018-04-08T06:11:28.997Z,999.58
2018-04-08T06:12:28.984Z,999.6
2018-04-08T06:13:28.976Z,999.63
2018-04-08T06:14:28.959Z,999.59
2018-04-08T06:15:28.946Z,999.59
2018-04-08T06:16:28.932Z,999.57
2018-04-08T06:17:28.926Z,999.6
2018-04-08T06:18:28.906Z,999.62
2018-04-08T06:19:28.943Z,999.63
2018-04-08T06:20:29.081Z,999.65
2018-04-08T06:21:28.868Z,999.66
2018-04-08T06:22:28.854Z,999.61
2018-04-08T06:23:28.840Z,999.64
2018-04-08T06:24:28.828Z,999.63
2018-04-08T06:25:28.816Z,999.63
2018-04-08T06:26:28.802Z,999.65
2018-04-08T06:27:28.791Z,999.63
2018-04-08T06:28:28.781Z,999.58
2018-04-08T06:29:28.763Z,999.61
2018-04-08T06:30:28.755Z,999.6
2018-04-08T06:31:28.740Z,999.61
2018-04-08T06:32:28.730Z,999.59
2018-04-08T06:33:28.717Z,999.61
2018-04-08T06:34:28.701Z,999.59
2018-04-08T06:35:28.690Z,999.58
2018-04-08T06:36:28.677Z,999.6
2018-04-08T06:37:28.670Z,999.59
2018-04-08T06:38:28.658Z,999.58
2018-04-08T06:39:28.641Z,999.59
2018-04-08T06:40:28.630Z,999.61
2018-04-08T06:41:28.615Z,999.58
2018-04-08T06:42:28.601Z,999.61
2018-04-08T06:43:28.594Z,999.56
2018-04-08T06:44:28.579Z,999.61
2018-04-08T06:45:28.565Z,999.6
2018-04-08T06:46:28.556Z,999.59
2018-04-08T06:47:28.543Z,999.61
2018-04-08T06:48:28.529Z,999.64
2018-04-08T06:49:28.523Z,999.67
2018-04-08T06:50:28.506Z,999.65
2018-04-08T06:51:28.492Z,999.63
2018-04-08T06:52:28.482Z,999.62
2018-04-08T06:53:28.469Z,999.64
2018-04-08T06:54:28.457Z,999.64
2018-04-08T06:55:28.446Z,999.69
2018-04-08T06:56:28.431Z,999.67
2018-04-08T06:57:28.422Z,999.67
2018-04-08T06:58:28.413Z,999.64
2018-04-08T06:59:28.398Z,999.61
2018-04-08T07:00:28.422Z,999.6
2018-04-08T07:01:28.373Z,999.59
2018-04-08T07:02:28.361Z,999.59
2018-04-08T07:03:28.349Z,999.55
2018-04-08T07:04:28.338Z,999.57
2018-04-08T07:05:28.329Z,999.55
2018-04-08T07:06:28.313Z,999.57
2018-04-08T07:07:28.304Z,999.61
2018-04-08T07:08:28.297Z,999.64
2018-04-08T07:09:28.284Z,999.64
2018-04-08T07:10:28.270Z,999.64
2018-04-08T07:11:28.259Z,999.67
2018-04-08T07:12:28.250Z,999.65
2018-04-08T07:13:28.234Z,999.63
2018-04-08T07:14:28.224Z,999.67
2018-04-08T07:15:28.218Z,999.65
2018-04-08T07:16:28.200Z,999.64
2018-04-08T07:17:28.189Z,999.67
2018-04-08T07:18:28.282Z,999.63
2018-04-08T07:19:28.171Z,999.66
2018-04-08T07:20:28.154Z,999.62
2018-04-08T07:21:28.143Z,999.67
2018-04-08T07:22:28.139Z,999.65
2018-04-08T07:23:28.122Z,999.66
2018-04-08T07:24:28.108Z,999.6
2018-04-08T07:25:28.097Z,999.63
2018-04-08T07:26:28.087Z,999.63
2018-04-08T07:27:28.075Z,999.63
2018-04-08T07:28:28.063Z,999.65
2018-04-08T07:29:28.053Z,999.63
2018-04-08T07:30:28.042Z,999.61
2018-04-08T07:31:28.029Z,999.64
2018-04-08T07:32:28.018Z,999.6
2018-04-08T07:33:28.012Z,999.59
2018-04-08T07:34:28.007Z,999.6
2018-04-08T07:35:27.987Z,999.61
2018-04-08T07:36:27.974Z,999.58
2018-04-08T07:37:27.963Z,999.55
2018-04-08T07:38:27.956Z,999.54
2018-04-08T07:39:27.943Z,999.54
2018-04-08T07:40:27.932Z,999.53
2018-04-08T07:41:27.922Z,999.53
2018-04-08T07:42:27.911Z,999.56
2018-04-08T07:43:27.899Z,999.6
2018-04-08T07:44:27.890Z,999.63
2018-04-08T07:45:27.877Z,999.65
2018-04-08T07:46:27.867Z,999.68
2018-04-08T07:47:27.861Z,999.67
2018-04-08T07:48:27.848Z,999.68
2018-04-08T07:49:27.838Z,999.67
2018-04-08T07:50:27.827Z,999.7
2018-04-08T07:51:27.817Z,999.69
2018-04-08T07:52:27.808Z,999.72
2018-04-08T07:53:27.797Z,999.71
2018-04-08T07:54:27.788Z,999.73
2018-04-08T07:55:27.776Z,999.77
2018-04-08T07:56:27.768Z,999.75
2018-04-08T07:57:27.758Z,999.73
2018-04-08T07:58:27.748Z,999.78
2018-04-08T07:59:27.739Z,999.76
2018-04-08T08:00:27.732Z,999.71
2018-04-08T08:01:27.720Z,999.77
2018-04-08T08:02:27.712Z,999.76
2018-04-08T08:03:27.703Z,999.73
2018-04-08T08:04:27.695Z,999.76
2018-04-08T08:05:27.688Z,999.76
2018-04-08T08:06:27.679Z,999.75
2018-04-08T08:07:27.668Z,999.65
2018-04-08T08:08:27.661Z,999.7
2018-04-08T08:09:27.650Z,999.72
2018-04-08T08:10:27.641Z,999.72
2018-04-08T08:11:27.634Z,999.69
2018-04-08T08:12:27.625Z,999.72
2018-04-08T08:13:27.617Z,999.71
2018-04-08T08:14:27.610Z,999.73
2018-04-08T08:15:27.602Z,999.86
2018-04-08T08:16:27.593Z,999.82
2018-04-08T08:17:27.588Z,999.82
2018-04-08T08:18:27.581Z,999.82
2018-04-08T08:19:27.575Z,999.86
2018-04-08T08:20:27.768Z,999.88
2018-04-08T08:21:27.560Z,999.87
2018-04-08T08:22:27.554Z,999.89
2018-04-08T08:23:27.548Z,999.83
2018-04-08T08:24:27.541Z,999.79
2018-04-08T08:25:27.540Z,999.82
2018-04-08T08:26:27.529Z,999.79
2018-04-08T08:27:27.521Z,999.79
2018-04-08T08:28:27.523Z,999.76
2018-04-08T08:29:27.516Z,999.76
2018-04-08T08:30:27.506Z,999.79
2018-04-08T08:31:27.496Z,999.75
2018-04-08T08:32:27.490Z,999.79
2018-04-08T08:33:27.484Z,999.78
2018-04-08T08:34:27.478Z,999.79
2018-04-08T08:35:27.474Z,999.81
2018-04-08T08:36:27.464Z,999.81
2018-04-08T08:37:27.456Z,999.88
2018-04-08T08:38:27.452Z,999.88
2018-04-08T08:39:27.444Z,999.88
2018-04-08T08:40:27.448Z,999.86
2018-04-08T08:41:27.438Z,999.88
2018-04-08T08:42:27.467Z,999.85
2018-04-08T08:43:27.423Z,999.9
2018-04-08T08:44:27.409Z,999.83
2018-04-08T08:45:27.404Z,999.82
2018-04-08T08:46:27.398Z,999.82
2018-04-08T08:47:27.390Z,999.84
2018-04-08T08:48:27.396Z,999.81
2018-04-08T08:49:27.377Z,999.82
2018-04-08T08:50:27.369Z,999.77
2018-04-08T08:51:27.363Z,999.8
2018-04-08T08:52:27.356Z,999.75
2018-04-08T08:53:27.350Z,999.76
2018-04-08T08:54:27.355Z,999.77
2018-04-08T08:55:27.335Z,999.76
2018-04-08T08:56:27.328Z,999.75
2018-04-08T08:57:27.324Z,999.78
2018-04-08T08:58:27.318Z,999.8
2018-04-08T08:59:27.307Z,999.79
2018-04-08T09:00:27.300Z,999.79
2018-04-08T09:01:27.295Z,999.79
2018-04-08T09:02:27.285Z,999.74
2018-04-08T09:03:27.282Z,999.76
2018-04-08T09:04:27.275Z,999.76
2018-04-08T09:05:27.265Z,999.74
2018-04-08T09:06:27.256Z,999.78
2018-04-08T09:07:27.253Z,999.79
2018-04-08T09:08:27.245Z,999.78
2018-04-08T09:09:27.239Z,999.81
2018-04-08T09:10:27.236Z,999.77
2018-04-08T09:11:27.225Z,999.77
2018-04-08T09:12:27.219Z,999.76
2018-04-08T09:13:27.212Z,999.77
2018-04-08T09:14:27.204Z,999.73
2018-04-08T09:15:27.199Z,999.77
2018-04-08T09:16:27.192Z,999.78
2018-04-08T09:17:27.204Z,999.73
2018-04-08T09:18:27.178Z,999.72
2018-04-08T09:19:27.174Z,999.75
2018-04-08T09:20:27.169Z,999.71
2018-04-08T09:21:27.161Z,999.69
2018-04-08T09:22:27.157Z,999.71
2018-04-08T09:23:27.151Z,999.7
2018-04-08T09:24:27.144Z,999.72
2018-04-08T09:25:27.139Z,999.77
2018-04-08T09:26:27.180Z,999.71
2018-04-08T09:27:27.124Z,999.7
2018-04-08T09:28:27.115Z,999.76
2018-04-08T09:29:27.109Z,999.71
2018-04-08T09:30:27.106Z,999.73
2018-04-08T09:31:27.098Z,999.74
2018-04-08T09:32:27.092Z,999.8
2018-04-08T09:33:27.086Z,999.8
2018-04-08T09:34:27.081Z,999.84
2018-04-08T09:35:27.079Z,999.87
2018-04-08T09:36:27.138Z,999.83
2018-04-08T09:37:27.068Z,999.87
2018-04-08T09:38:27.060Z,999.9
2018-04-08T09:39:27.054Z,999.89
2018-04-08T09:40:27.050Z,999.91
2018-04-08T09:41:27.047Z,999.88
2018-04-08T09:42:27.040Z,999.91
2018-04-08T09:43:27.036Z,999.9
2018-04-08T09:44:27.040Z,999.85
2018-04-08T09:45:27.029Z,999.9
2018-04-08T09:46:27.024Z,999.87
2018-04-08T09:47:27.019Z,999.91
2018-04-08T09:48:27.014Z,999.87
2018-04-08T09:49:27.010Z,999.86
2018-04-08T09:50:27.008Z,999.84
2018-04-08T09:51:27.009Z,999.85
2018-04-08T09:52:27.005Z,999.76
2018-04-08T09:53:26.997Z,999.75
2018-04-08T09:54:27.004Z,999.74
2018-04-08T09:55:26.994Z,999.72
2018-04-08T09:56:26.990Z,999.75
2018-04-08T09:57:26.986Z,999.79
2018-04-08T09:58:26.984Z,999.76
2018-04-08T09:59:26.983Z,999.76
2018-04-08T10:00:26.980Z,999.76
2018-04-08T10:01:26.978Z,999.78
2018-04-08T10:02:26.974Z,999.79
2018-04-08T10:03:26.971Z,999.75
2018-04-08T10:04:26.969Z,999.78
2018-04-08T10:05:27.029Z,999.75
2018-04-08T10:06:26.960Z,999.7
2018-04-08T10:07:26.955Z,999.69
2018-04-08T10:08:26.953Z,999.71
2018-04-08T10:09:26.946Z,999.66
2018-04-08T10:10:26.945Z,999.65
2018-04-08T10:11:26.940Z,999.66
2018-04-08T10:12:26.936Z,999.67
2018-04-08T10:13:26.933Z,999.64
2018-04-08T10:14:26.930Z,999.67
2018-04-08T10:15:26.932Z,999.69
2018-04-08T10:16:26.924Z,999.65
2018-04-08T10:17:26.920Z,999.7
2018-04-08T10:18:26.919Z,999.66
2018-04-08T10:19:26.913Z,999.68
2018-04-08T10:20:26.906Z,999.66
2018-04-08T10:21:26.902Z,999.68
2018-04-08T10:22:26.898Z,999.68
2018-04-08T10:23:26.899Z,999.72
2018-04-08T10:24:26.893Z,999.69
2018-04-08T10:25:26.890Z,999.67
2018-04-08T10:26:26.885Z,999.64
2018-04-08T10:27:26.886Z,999.59
2018-04-08T10:28:26.877Z,999.59
2018-04-08T10:29:26.896Z,999.51
2018-04-08T10:30:26.872Z,999.55
2018-04-08T10:31:26.917Z,999.55
2018-04-08T10:32:26.872Z,999.58
2018-04-08T10:33:26.863Z,999.58
2018-04-08T10:34:26.862Z,999.6
2018-04-08T10:35:26.859Z,999.52
2018-04-08T10:36:26.904Z,999.52
2018-04-08T10:37:26.853Z,999.54
2018-04-08T10:38:26.849Z,999.55
2018-04-08T10:39:26.847Z,999.51
2018-04-08T10:40:26.844Z,999.52
2018-04-08T10:41:26.840Z,999.5
2018-04-08T10:42:26.840Z,999.53
2018-04-08T10:43:26.838Z,999.53
2018-04-08T10:44:26.834Z,999.58
2018-04-08T10:45:26.830Z,999.56
2018-04-08T10:46:26.831Z,999.59
2018-04-08T10:47:26.827Z,999.57
2018-04-08T10:48:26.829Z,999.58
2018-04-08T10:49:26.824Z,999.58
2018-04-08T10:50:26.824Z,999.57
2018-04-08T10:51:26.822Z,999.56
2018-04-08T10:52:26.825Z,999.56
2018-04-08T10:53:26.821Z,999.53
2018-04-08T10:54:26.822Z,999.51
2018-04-08T10:55:26.818Z,999.54
2018-04-08T10:56:26.814Z,999.56
2018-04-08T10:57:26.815Z,999.6
2018-04-08T10:58:26.817Z,999.59
2018-04-08T10:59:26.818Z,999.6
2018-04-08T11:00:26.811Z,999.57
2018-04-08T11:01:26.811Z,999.53
2018-04-08T11:02:26.812Z,999.47
2018-04-08T11:03:26.809Z,999.48
2018-04-08T11:04:26.809Z,999.46
2018-04-08T11:05:26.815Z,999.5
2018-04-08T11:06:26.809Z,999.55
2018-04-08T11:07:26.806Z,999.47
2018-04-08T11:08:26.806Z,999.47
2018-04-08T11:09:26.804Z,999.49
2018-04-08T11:10:26.804Z,999.5
2018-04-08T11:11:26.803Z,999.53
2018-04-08T11:12:26.806Z,999.48
2018-04-08T11:13:26.805Z,999.49
2018-04-08T11:14:26.805Z,999.49
2018-04-08T11:15:26.807Z,999.49
2018-04-08T11:16:26.808Z,999.44
2018-04-08T11:17:26.811Z,999.44
2018-04-08T11:18:26.810Z,999.48
2018-04-08T11:19:26.811Z,999.42
2018-04-08T11:20:26.815Z,999.46
2018-04-08T11:21:26.817Z,999.43
2018-04-08T11:22:26.822Z,999.45
2018-04-08T11:23:26.821Z,999.45
2018-04-08T11:24:26.824Z,999.48
2018-04-08T11:25:26.825Z,999.49
2018-04-08T11:26:26.830Z,999.49
2018-04-08T11:27:26.836Z,999.46
2018-04-08T11:28:26.842Z,999.48
2018-04-08T11:29:26.844Z,999.47
2018-04-08T11:30:26.846Z,999.47
2018-04-08T11:31:26.856Z,999.47
2018-04-08T11:32:26.862Z,999.45
2018-04-08T11:33:26.862Z,999.47
2018-04-08T11:34:26.867Z,999.52
2018-04-08T11:35:26.874Z,999.51
2018-04-08T11:36:26.881Z,999.54
2018-04-08T11:37:26.885Z,999.48
2018-04-08T11:38:26.889Z,999.54
2018-04-08T11:39:26.897Z,999.47
2018-04-08T11:40:26.901Z,999.46
2018-04-08T11:41:26.909Z,999.51
2018-04-08T11:42:26.916Z,999.48
2018-04-08T11:43:26.921Z,999.46
2018-04-08T11:44:26.928Z,999.52
2018-04-08T11:45:26.936Z,999.45
2018-04-08T11:46:26.939Z,999.43
2018-04-08T11:47:26.947Z,999.41
2018-04-08T11:48:26.954Z,999.4
2018-04-08T11:49:26.960Z,999.4
2018-04-08T11:50:26.968Z,999.39
2018-04-08T11:51:26.974Z,999.31
2018-04-08T11:52:27.039Z,999.32
2018-04-08T11:53:26.988Z,999.34
2018-04-08T11:54:26.994Z,999.33
2018-04-08T11:55:27.000Z,999.34
2018-04-08T11:56:27.007Z,999.3
2018-04-08T11:57:27.016Z,999.39
2018-04-08T11:58:27.021Z,999.36
2018-04-08T11:59:27.028Z,999.38
2018-04-08T12:00:27.036Z,999.37
2018-04-08T12:01:27.042Z,999.39
2018-04-08T12:02:27.048Z,999.34
2018-04-08T12:03:27.057Z,999.36
2018-04-08T12:04:27.061Z,999.37
2018-04-08T12:05:27.067Z,999.36
2018-04-08T12:06:27.077Z,999.36
2018-04-08T12:07:27.083Z,999.3
2018-04-08T12:08:27.089Z,999.27
2018-04-08T12:09:27.094Z,999.24
2018-04-08T12:10:27.110Z,999.28
2018-04-08T12:11:27.109Z,999.26
2018-04-08T12:12:27.115Z,999.27
2018-04-08T12:13:27.122Z,999.3
2018-04-08T12:14:27.128Z,999.26
2018-04-08T12:15:27.136Z,999.27
2018-04-08T12:16:27.141Z,999.24
2018-04-08T12:17:27.149Z,999.2
2018-04-08T12:18:27.160Z,999.21
2018-04-08T12:19:27.164Z,999.18
2018-04-08T12:20:27.172Z,999.17
2018-04-08T12:21:27.379Z,999.18
2018-04-08T12:22:27.185Z,999.17
2018-04-08T12:23:27.191Z,999.17
2018-04-08T12:24:27.200Z,999.16
2018-04-08T12:25:27.205Z,999.16
2018-04-08T12:26:27.214Z,999.16
2018-04-08T12:27:27.219Z,999.16